Patricia Ann — WDE2845 — position and weather

sailwx.info

Track history (hours):
 
Tides and Currents Weather Stations Pressure Air Temp Water Temp Dewpoint Dewpoint Depression Visibility Wind Speed Wind Dir Waves Ship Positions

Patricia Ann

Owner: AmNav Maritime Services, Oakland, CA. More information available from US FCC via Universal Licensing System and Coast Guard Vessel Documentation Center.

Last reported at 2017-Oct-18 01:28 UTC. Time now 2017-Oct-18 01:54 UTC.
Position N 37°49' W 122°19'.

Length 24 m; draft 4.9 m.

Type: Tug. MMSI: 367330510.

Date/timePositionNaut miles runAvg speedWind from/ knotsBaromVisibWave heightAir tempDewpointWater temp
2017-Oct-18 01:28N 37°49' W 122°19'0 0.0
2017-Oct-18 00:58N 37°49' W 122°19'0 0.3
2017-Oct-18 00:30N 37°49' W 122°19'1 1.8
2017-Oct-18 00:00N 37°49' W 122°20'2 4.0
2017-Oct-17 23:31N 37°48' W 122°22'2 4.4
2017-Oct-17 23:00N 37°49' W 122°19'0 0.0
2017-Oct-17 22:30N 37°49' W 122°19'0 0.0
2017-Oct-17 22:00N 37°49' W 122°19'0 0.0
2017-Oct-17 21:30N 37°49' W 122°19'3 5.4
2017-Oct-17 21:00N 37°50' W 122°22'4 8.9
2017-Oct-17 20:30N 37°54' W 122°25'8 8.7
2017-Oct-17 19:36N 38°02' W 122°22'1 8.6
2017-Oct-17 19:28N 38°02' W 122°21'5 7.6
2017-Oct-17 18:46N 38°05' W 122°15'0 0.1
2017-Oct-17 17:40N 38°05' W 122°15'1 5.4
2017-Oct-17 17:28N 38°04' W 122°15'1 2.5
2017-Oct-17 17:00N 38°04' W 122°13'3 6.5
2017-Oct-17 16:30N 38°03' W 122°17'2 1.7
2017-Oct-17 15:36N 38°04' W 122°16'1 9.8
2017-Oct-17 15:29N 38°04' W 122°14'4 0.3
2017-Oct-16 23:56N 38°02' W 122°09'3 7.4
2017-Oct-16 23:29N 38°04' W 122°13'4 7.4
2017-Oct-16 22:59N 38°03' W 122°18'4 8.1
2017-Oct-16 22:30N 38°02' W 122°22'4 8.0
2017-Oct-16 22:00N 37°59' W 122°26'4 7.8
2017-Oct-16 21:30N 37°55' W 122°25'1 2.1
2017-Oct-16 21:00N 37°55' W 122°23'0 0.0
2017-Oct-16 20:30N 37°55' W 122°23'0 0.0
2017-Oct-16 20:00N 37°55' W 122°23'0 0.0
2017-Oct-16 19:30N 37°55' W 122°23'0 0.0
2017-Oct-16 19:00N 37°55' W 122°23'0 0.0
2017-Oct-16 18:30N 37°55' W 122°23'0 0.0
2017-Oct-16 18:00N 37°55' W 122°23'0 0.0
2017-Oct-16 17:30N 37°55' W 122°23'0 0.0
2017-Oct-16 16:57N 37°55' W 122°23'0 0.0
2017-Oct-16 16:30N 37°55' W 122°23'0 0.0
2017-Oct-16 15:57N 37°55' W 122°23'0 0.0
2017-Oct-16 15:30N 37°55' W 122°23'1 1.9
2017-Oct-16 14:52N 37°55' W 122°22'1 0.6
2017-Oct-16 14:01N 37°55' W 122°22'2 3.8
2017-Oct-16 13:30N 37°54' W 122°24'1 1.6
2017-Oct-16 13:00N 37°54' W 122°23'1 2.3
2017-Oct-16 12:28N 37°55' W 122°22'0 0.0
2017-Oct-16 11:58N 37°55' W 122°22'0 0.3
2017-Oct-16 11:28N 37°55' W 122°22'0 0.4
2017-Oct-16 10:59N 37°55' W 122°22'0 0.0
2017-Oct-16 10:29N 37°55' W 122°22'0 0.0
2017-Oct-16 09:59N 37°55' W 122°22'0 0.0
2017-Oct-16 09:29N 37°55' W 122°22'0 0.0
2017-Oct-16 08:59N 37°55' W 122°22'2 4.3
2017-Oct-16 08:30N 37°55' W 122°24'610.9
2017-Oct-16 08:00N 38°00' W 122°24'510.5
2017-Oct-16 07:30N 38°03' W 122°19'9 5.7
2017-Oct-16 05:59N 38°02' W 122°08'3 0.3
2017-Oct-15 20:46N 38°03' W 122°11'4 9.6
2017-Oct-15 20:22N 38°03' W 122°16'510.0
2017-Oct-15 19:54N 38°02' W 122°22'6 8.7
2017-Oct-15 19:14N 37°57' W 122°26'310.2
2017-Oct-15 18:59N 37°54' W 122°25'510.8
2017-Oct-15 18:30N 37°50' W 122°22'3 4.5
2017-Oct-15 17:56N 37°49' W 122°19'0 0.0
2017-Oct-15 17:29N 37°49' W 122°19'0 0.0
2017-Oct-15 16:56N 37°49' W 122°19'0 0.0
2017-Oct-15 16:26N 37°49' W 122°19'0 0.0
2017-Oct-15 15:59N 37°49' W 122°19'0 0.0
2017-Oct-15 15:29N 37°49' W 122°19'0 0.0
2017-Oct-15 14:59N 37°49' W 122°19'1 1.0
2017-Oct-15 13:59N 37°49' W 122°20'2 3.7
2017-Oct-15 13:30N 37°48' W 122°22'1 2.0
2017-Oct-15 12:55N 37°48' W 122°21'0 0.0
2017-Oct-15 12:28N 37°48' W 122°21'0 0.0
2017-Oct-15 11:58N 37°48' W 122°21'0 0.0
2017-Oct-15 11:28N 37°48' W 122°21'0 0.0
2017-Oct-15 10:58N 37°48' W 122°21'0 0.0
2017-Oct-15 10:28N 37°48' W 122°21'0 0.0
2017-Oct-15 09:58N 37°48' W 122°21'0 0.0
2017-Oct-15 09:28N 37°48' W 122°21'0 0.0
2017-Oct-15 08:58N 37°48' W 122°21'0 0.0
2017-Oct-15 08:25N 37°48' W 122°21'0 0.0
2017-Oct-15 07:58N 37°48' W 122°21'0 0.0
2017-Oct-15 07:28N 37°48' W 122°21'0 0.0
2017-Oct-15 06:58N 37°48' W 122°21'1 2.4
2017-Oct-15 06:28N 37°48' W 122°19'0 1.1
2017-Oct-15 06:00N 37°48' W 122°20'1 1.6
2017-Oct-15 05:30N 37°48' W 122°21'0 0.1
2017-Oct-15 05:00N 37°48' W 122°21'0 0.1
2017-Oct-15 04:27N 37°48' W 122°21'4 8.7
2017-Oct-15 04:00N 37°51' W 122°24'3 5.8
2017-Oct-15 03:30N 37°54' W 122°23'1 1.4
2017-Oct-15 02:40N 37°55' W 122°22'0 1.5
2017-Oct-15 02:30N 37°55' W 122°22'2 3.2
2017-Oct-15 02:01N 37°54' W 122°24'2 3.3
2017-Oct-15 01:30N 37°53' W 122°25'2 4.3
2017-Oct-15 01:01N 37°51' W 122°24'4 8.1
2017-Oct-15 00:31N 37°49' W 122°20'1 2.0
2017-Oct-15 00:00N 37°49' W 122°19'0 0.0
2017-Oct-14 23:27N 37°49' W 122°19'0 0.0
2017-Oct-14 23:00N 37°49' W 122°19'0 0.0
2017-Oct-14 22:30N 37°49' W 122°19'0 0.0
2017-Oct-14 22:00N 37°49' W 122°19'0 0.0
2017-Oct-14 21:30N 37°49' W 122°19'0 0.0
2017-Oct-14 20:57N 37°49' W 122°19'0 0.0
2017-Oct-14 20:30N 37°49' W 122°19'4 7.3
2017-Oct-14 20:00N 37°49' W 122°23'4 8.1
2017-Oct-14 19:30N 37°49' W 122°28'2 4.8
2017-Oct-14 19:00N 37°49' W 122°31'510.1
2017-Oct-14 18:31N 37°51' W 122°25'5 9.4
2017-Oct-14 18:00N 37°55' W 122°27'7 9.2
2017-Oct-14 17:13N 38°02' W 122°23'3 9.1
2017-Oct-14 16:51N 38°03' W 122°19'3 7.2
2017-Oct-14 16:23N 38°04' W 122°15'5 2.3
2017-Oct-14 14:01N 38°02' W 122°08'0 0.0
2017-Oct-14 00:42N 38°02' W 122°08'2 5.0
2017-Oct-14 00:19N 38°03' W 122°10'2 7.5
2017-Oct-14 00:00N 38°04' W 122°13'4 8.1
2017-Oct-13 23:30N 38°03' W 122°18'4 8.5
2017-Oct-13 23:00N 38°01' W 122°23'510.1
2017-Oct-13 22:30N 37°57' W 122°27'5 9.5
2017-Oct-13 22:00N 37°53' W 122°25'4 7.5
2017-Oct-13 21:30N 37°49' W 122°26'3 5.9
2017-Oct-13 21:00N 37°48' W 122°30'0 0.6
2017-Oct-13 20:30N 37°48' W 122°30'2 3.7
2017-Oct-13 20:00N 37°49' W 122°28'5 9.7
2017-Oct-13 19:30N 37°48' W 122°22'3 4.9
2017-Oct-13 18:58N 37°49' W 122°19'0 0.0
2017-Oct-13 18:28N 37°49' W 122°19'0 0.0
2017-Oct-13 17:58N 37°49' W 122°19'0 0.0
2017-Oct-13 17:28N 37°49' W 122°19'0 0.0
2017-Oct-13 16:58N 37°49' W 122°19'0 0.0
2017-Oct-13 16:28N 37°49' W 122°19'0 0.0
2017-Oct-13 15:55N 37°49' W 122°19'0 0.0
2017-Oct-13 15:28N 37°49' W 122°19'0 0.0
2017-Oct-13 14:58N 37°49' W 122°19'0 0.0
2017-Oct-13 14:22N 37°49' W 122°19'0 0.0
2017-Oct-13 13:58N 37°49' W 122°19'1 2.0
2017-Oct-13 13:26N 37°49' W 122°20'0 0.2
2017-Oct-13 12:56N 37°49' W 122°20'2 4.3
2017-Oct-13 12:29N 37°48' W 122°22'2 4.1
2017-Oct-13 12:01N 37°48' W 122°20'1 2.9
2017-Oct-13 11:30N 37°48' W 122°18'0 0.4
2017-Oct-13 11:00N 37°47' W 122°18'1 1.2
2017-Oct-13 10:30N 37°48' W 122°19'0 0.1
2017-Oct-13 10:00N 37°48' W 122°19'0 0.0
2017-Oct-13 09:31N 37°48' W 122°19'0 0.0
2017-Oct-13 09:00N 37°48' W 122°19'0 0.0
2017-Oct-13 08:30N 37°48' W 122°19'0 0.0
2017-Oct-13 08:01N 37°48' W 122°19'0 0.0
2017-Oct-13 07:30N 37°48' W 122°19'0 0.0
2017-Oct-13 07:00N 37°48' W 122°19'0 0.0
2017-Oct-13 06:30N 37°48' W 122°19'0 0.0
2017-Oct-13 06:00N 37°48' W 122°19'0 0.0
2017-Oct-13 05:30N 37°48' W 122°19'0 0.0
2017-Oct-13 05:00N 37°48' W 122°19'0 0.0
2017-Oct-13 04:30N 37°48' W 122°19'0 0.0
2017-Oct-13 03:57N 37°48' W 122°19'0 0.5
2017-Oct-13 03:30N 37°48' W 122°19'1 1.9
2017-Oct-13 03:00N 37°48' W 122°18'1 1.5
2017-Oct-13 02:28N 37°48' W 122°19'0 0.4
2017-Oct-13 02:00N 37°48' W 122°19'2 4.4
2017-Oct-13 01:30N 37°48' W 122°22'3 5.0
2017-Oct-13 00:58N 37°49' W 122°19'0 0.0
2017-Oct-13 00:28N 37°49' W 122°19'0 0.0
2017-Oct-12 23:58N 37°49' W 122°19'1 2.7
2017-Oct-12 23:30N 37°49' W 122°20'1 2.1
2017-Oct-12 23:00N 37°48' W 122°19'1 1.5
2017-Oct-12 22:30N 37°48' W 122°20'2 3.4
2017-Oct-12 21:59N 37°49' W 122°19'0 0.0
2017-Oct-12 21:29N 37°49' W 122°19'0 0.0
2017-Oct-12 20:56N 37°49' W 122°19'0 0.0
2017-Oct-12 20:29N 37°49' W 122°19'0 0.0
2017-Oct-12 19:59N 37°49' W 122°19'0 0.0
2017-Oct-12 19:26N 37°49' W 122°19'0 0.0
2017-Oct-12 18:59N 37°49' W 122°19'0 0.0
2017-Oct-12 18:29N 37°49' W 122°19'0 0.0
2017-Oct-12 17:59N 37°49' W 122°19'0 0.0
2017-Oct-12 17:29N 37°49' W 122°19'0 0.0
2017-Oct-12 16:59N 37°49' W 122°19'0 0.0
2017-Oct-12 16:29N 37°49' W 122°19'0 0.0
2017-Oct-12 15:59N 37°49' W 122°19'0 0.0
2017-Oct-12 15:29N 37°49' W 122°19'0 0.0
2017-Oct-12 14:59N 37°49' W 122°19'0 0.0
2017-Oct-12 14:29N 37°49' W 122°19'0 0.0
2017-Oct-12 13:59N 37°49' W 122°19'0 0.0
2017-Oct-12 13:29N 37°49' W 122°19'0 0.0
2017-Oct-12 12:59N 37°49' W 122°19'0 0.0
2017-Oct-12 12:29N 37°49' W 122°19'0 0.0
2017-Oct-12 11:59N 37°49' W 122°19'1 1.7
2017-Oct-12 11:28N 37°49' W 122°20'0 0.3
2017-Oct-12 11:01N 37°49' W 122°20'1 1.7
2017-Oct-12 10:26N 37°49' W 122°19'0 0.0
2017-Oct-12 09:59N 37°49' W 122°19'0 0.0
2017-Oct-12 09:30N 37°49' W 122°19'0 0.0
2017-Oct-12 08:59N 37°49' W 122°19'0 0.0
2017-Oct-12 08:29N 37°49' W 122°19'0 0.0
2017-Oct-12 07:59N 37°49' W 122°19'0 0.0
2017-Oct-12 07:29N 37°49' W 122°19'0 0.0
2017-Oct-12 06:59N 37°49' W 122°19'0 0.0
2017-Oct-12 06:29N 37°49' W 122°19'0 0.0
2017-Oct-12 05:59N 37°49' W 122°19'0 0.0
2017-Oct-12 05:29N 37°49' W 122°19'0 0.0
2017-Oct-12 04:59N 37°49' W 122°19'0 0.0
2017-Oct-12 04:29N 37°49' W 122°19'1 2.0
2017-Oct-12 04:00N 37°49' W 122°20'1 2.6
2017-Oct-12 03:28N 37°48' W 122°19'2 3.9
2017-Oct-12 03:00N 37°48' W 122°21'0 0.2
2017-Oct-12 02:30N 37°48' W 122°21'2 3.1
2017-Oct-12 01:58N 37°48' W 122°19'0 0.1
2017-Oct-12 01:29N 37°48' W 122°19'0 0.0
2017-Oct-12 00:59N 37°48' W 122°19'0 0.0
2017-Oct-12 00:29N 37°48' W 122°19'0 0.0
2017-Oct-12 00:00N 37°48' W 122°19'1 2.4
2017-Oct-11 23:29N 37°49' W 122°20'0 0.9
2017-Oct-11 22:57N 37°49' W 122°20'1 2.7
2017-Oct-11 22:31N 37°48' W 122°22'3 4.8
2017-Oct-11 21:58N 37°49' W 122°19'0 0.0
2017-Oct-11 21:28N 37°49' W 122°19'0 0.0
2017-Oct-11 20:58N 37°49' W 122°19'0 0.0
2017-Oct-11 20:28N 37°49' W 122°19'0 0.0
2017-Oct-11 19:55N 37°49' W 122°19'0 0.0
2017-Oct-11 19:28N 37°49' W 122°19'0 0.0
2017-Oct-11 18:58N 37°49' W 122°19'0 0.0
2017-Oct-11 18:28N 37°49' W 122°19'0 0.0
2017-Oct-11 17:58N 37°49' W 122°19'0 0.0
2017-Oct-11 17:28N 37°49' W 122°19'0 0.0
2017-Oct-11 16:58N 37°49' W 122°19'13 0.7
2017-Oct-10 23:59N 38°02' W 122°22'7 8.6
2017-Oct-10 23:10N 38°04' W 122°14'2 0.1
2017-Oct-09 20:23N 38°03' W 122°11'5 9.9
2017-Oct-09 19:53N 38°03' W 122°17'4 8.4
2017-Oct-09 19:25N 38°02' W 122°22'710.3
2017-Oct-09 18:46N 37°56' W 122°27'310.7
2017-Oct-09 18:30N 37°54' W 122°26'5 9.5
2017-Oct-09 18:00N 37°49' W 122°25'5 9.9
2017-Oct-09 17:30N 37°48' W 122°31'1 2.4
2017-Oct-09 17:00N 37°49' W 122°29'5 9.2
2017-Oct-09 16:30N 37°49' W 122°23'4 7.1
2017-Oct-09 15:58N 37°49' W 122°19'0 0.0
2017-Oct-09 15:28N 37°49' W 122°19'0 0.0
2017-Oct-09 14:58N 37°49' W 122°19'0 0.0
2017-Oct-09 14:28N 37°49' W 122°19'0 0.0
2017-Oct-09 13:58N 37°49' W 122°19'0 0.0
2017-Oct-09 13:28N 37°49' W 122°19'0 0.0
2017-Oct-09 12:58N 37°49' W 122°19'0 0.0
2017-Oct-09 12:28N 37°49' W 122°19'0 0.0
2017-Oct-09 11:58N 37°49' W 122°19'0 0.0
2017-Oct-09 11:28N 37°49' W 122°19'0 0.0
2017-Oct-09 10:58N 37°49' W 122°19'0 0.0
2017-Oct-09 10:28N 37°49' W 122°19'0 0.0
2017-Oct-09 09:58N 37°49' W 122°19'0 0.0
2017-Oct-09 09:28N 37°49' W 122°19'0 0.0
2017-Oct-09 08:58N 37°49' W 122°19'0 0.0
2017-Oct-09 08:28N 37°49' W 122°19'0 0.0
2017-Oct-09 07:55N 37°49' W 122°19'0 0.0
2017-Oct-09 07:28N 37°49' W 122°19'0 0.0
2017-Oct-09 06:58N 37°49' W 122°19'0 0.0
2017-Oct-09 06:28N 37°49' W 122°19'0 0.0
2017-Oct-09 05:58N 37°49' W 122°19'0 0.0
2017-Oct-09 05:28N 37°49' W 122°19'0 0.0
2017-Oct-09 04:58N 37°49' W 122°19'1 1.1
2017-Oct-09 04:30N 37°49' W 122°19'4 7.8
2017-Oct-09 04:01N 37°51' W 122°23'5 9.1
2017-Oct-09 03:30N 37°55' W 122°25'0 0.6
2017-Oct-09 02:57N 37°55' W 122°25'0 0.5
2017-Oct-09 02:30N 37°55' W 122°25'3 6.8
2017-Oct-09 02:00N 37°52' W 122°24'5 9.3
2017-Oct-09 01:30N 37°49' W 122°19'1 1.1
2017-Oct-09 00:59N 37°49' W 122°19'0 0.0
2017-Oct-09 00:29N 37°49' W 122°19'0 0.0
2017-Oct-08 23:59N 37°49' W 122°19'1 2.3
2017-Oct-08 23:30N 37°49' W 122°20'4 7.6
2017-Oct-08 23:00N 37°49' W 122°25'2 3.2
2017-Oct-08 22:28N 37°49' W 122°27'0 0.0
2017-Oct-08 21:58N 37°49' W 122°27'1 2.1
2017-Oct-08 21:31N 37°49' W 122°28'1 2.5
2017-Oct-08 21:01N 37°49' W 122°26'1 1.9
2017-Oct-08 20:28N 37°49' W 122°25'0 0.0
2017-Oct-08 19:58N 37°49' W 122°25'1 2.0
2017-Oct-08 19:30N 37°48' W 122°24'2 5.0
2017-Oct-08 19:00N 37°48' W 122°21'2 4.0
2017-Oct-08 18:30N 37°49' W 122°19'0 0.0
2017-Oct-08 18:00N 37°49' W 122°19'0 0.0
2017-Oct-08 17:27N 37°49' W 122°19'0 0.0
2017-Oct-08 17:00N 37°49' W 122°19'0 0.0
2017-Oct-08 16:30N 37°49' W 122°19'0 0.0
2017-Oct-08 16:00N 37°49' W 122°19'0 0.0
2017-Oct-08 15:30N 37°49' W 122°19'0 0.0
2017-Oct-08 15:00N 37°49' W 122°19'0 0.0
2017-Oct-08 14:30N 37°49' W 122°19'0 0.0
2017-Oct-08 14:00N 37°49' W 122°19'0 0.0
2017-Oct-08 13:30N 37°49' W 122°19'0 0.0
2017-Oct-08 13:00N 37°49' W 122°19'0 0.0
2017-Oct-08 12:30N 37°49' W 122°19'0 0.0
2017-Oct-08 12:00N 37°49' W 122°19'0 0.0
2017-Oct-08 11:30N 37°49' W 122°19'0 0.0
2017-Oct-08 11:00N 37°49' W 122°19'0 0.0
2017-Oct-08 10:30N 37°49' W 122°19'0 0.0
2017-Oct-08 10:00N 37°49' W 122°19'0 0.0
2017-Oct-08 09:30N 37°49' W 122°19'0 0.0
2017-Oct-08 09:00N 37°49' W 122°19'0 0.0
2017-Oct-08 08:30N 37°49' W 122°19'0 0.0
2017-Oct-08 08:00N 37°49' W 122°19'0 0.0
2017-Oct-08 07:30N 37°49' W 122°19'0 0.0
2017-Oct-08 07:00N 37°49' W 122°19'0 0.0
2017-Oct-08 06:30N 37°49' W 122°19'2 2.9
2017-Oct-08 05:58N 37°48' W 122°20'0 0.2
2017-Oct-08 05:29N 37°48' W 122°19'2 3.5
2017-Oct-08 05:00N 37°48' W 122°17'2 3.2
2017-Oct-08 04:30N 37°48' W 122°19'2 3.2
2017-Oct-08 04:00N 37°48' W 122°21'2 4.5
2017-Oct-08 03:30N 37°49' W 122°19'0 0.0
2017-Oct-08 03:00N 37°49' W 122°19'0 0.0
2017-Oct-08 02:30N 37°49' W 122°19'0 0.0
2017-Oct-08 02:00N 37°49' W 122°19'0 0.0
2017-Oct-08 01:30N 37°49' W 122°19'  
Track history (hours):
 
Tides and Currents Weather Stations Pressure Air Temp Water Temp Dewpoint Dewpoint Depression Visibility Wind Speed Wind Dir Waves Ship Positions

Patricia Ann

Owner: AmNav Maritime Services, Oakland, CA. More information available from US FCC via Universal Licensing System and Coast Guard Vessel Documentation Center.

Last reported at 2017-Oct-18 01:28 UTC. Time now 2017-Oct-18 01:54 UTC.
Position N 37°49' W 122°19'.

Length 24 m; draft 4.9 m.

Type: Tug. MMSI: 367330510.

Date/timePositionNaut miles runAvg speedWind from/ knotsBaromVisibWave heightAir tempDewpointWater temp
2017-Oct-18 01:28N 37°49' W 122°19'0 0.0
2017-Oct-18 00:58N 37°49' W 122°19'0 0.3
2017-Oct-18 00:30N 37°49' W 122°19'1 1.8
2017-Oct-18 00:00N 37°49' W 122°20'2 4.0
2017-Oct-17 23:31N 37°48' W 122°22'2 4.4
2017-Oct-17 23:00N 37°49' W 122°19'0 0.0
2017-Oct-17 22:30N 37°49' W 122°19'0 0.0
2017-Oct-17 22:00N 37°49' W 122°19'0 0.0
2017-Oct-17 21:30N 37°49' W 122°19'3 5.4
2017-Oct-17 21:00N 37°50' W 122°22'4 8.9
2017-Oct-17 20:30N 37°54' W 122°25'8 8.7
2017-Oct-17 19:36N 38°02' W 122°22'1 8.6
2017-Oct-17 19:28N 38°02' W 122°21'5 7.6
2017-Oct-17 18:46N 38°05' W 122°15'0 0.1
2017-Oct-17 17:40N 38°05' W 122°15'1 5.4
2017-Oct-17 17:28N 38°04' W 122°15'1 2.5
2017-Oct-17 17:00N 38°04' W 122°13'3 6.5
2017-Oct-17 16:30N 38°03' W 122°17'2 1.7
2017-Oct-17 15:36N 38°04' W 122°16'1 9.8
2017-Oct-17 15:29N 38°04' W 122°14'4 0.3
2017-Oct-16 23:56N 38°02' W 122°09'3 7.4
2017-Oct-16 23:29N 38°04' W 122°13'4 7.4
2017-Oct-16 22:59N 38°03' W 122°18'4 8.1
2017-Oct-16 22:30N 38°02' W 122°22'4 8.0
2017-Oct-16 22:00N 37°59' W 122°26'4 7.8
2017-Oct-16 21:30N 37°55' W 122°25'1 2.1
2017-Oct-16 21:00N 37°55' W 122°23'0 0.0
2017-Oct-16 20:30N 37°55' W 122°23'0 0.0
2017-Oct-16 20:00N 37°55' W 122°23'0 0.0
2017-Oct-16 19:30N 37°55' W 122°23'0 0.0
2017-Oct-16 19:00N 37°55' W 122°23'0 0.0
2017-Oct-16 18:30N 37°55' W 122°23'0 0.0
2017-Oct-16 18:00N 37°55' W 122°23'0 0.0
2017-Oct-16 17:30N 37°55' W 122°23'0 0.0
2017-Oct-16 16:57N 37°55' W 122°23'0 0.0
2017-Oct-16 16:30N 37°55' W 122°23'0 0.0
2017-Oct-16 15:57N 37°55' W 122°23'0 0.0
2017-Oct-16 15:30N 37°55' W 122°23'1 1.9
2017-Oct-16 14:52N 37°55' W 122°22'1 0.6
2017-Oct-16 14:01N 37°55' W 122°22'2 3.8
2017-Oct-16 13:30N 37°54' W 122°24'1 1.6
2017-Oct-16 13:00N 37°54' W 122°23'1 2.3
2017-Oct-16 12:28N 37°55' W 122°22'0 0.0
2017-Oct-16 11:58N 37°55' W 122°22'0 0.3
2017-Oct-16 11:28N 37°55' W 122°22'0 0.4
2017-Oct-16 10:59N 37°55' W 122°22'0 0.0
2017-Oct-16 10:29N 37°55' W 122°22'0 0.0
2017-Oct-16 09:59N 37°55' W 122°22'0 0.0
2017-Oct-16 09:29N 37°55' W 122°22'0 0.0
2017-Oct-16 08:59N 37°55' W 122°22'2 4.3
2017-Oct-16 08:30N 37°55' W 122°24'610.9
2017-Oct-16 08:00N 38°00' W 122°24'510.5
2017-Oct-16 07:30N 38°03' W 122°19'9 5.7
2017-Oct-16 05:59N 38°02' W 122°08'3 0.3
2017-Oct-15 20:46N 38°03' W 122°11'4 9.6
2017-Oct-15 20:22N 38°03' W 122°16'510.0
2017-Oct-15 19:54N 38°02' W 122°22'6 8.7
2017-Oct-15 19:14N 37°57' W 122°26'310.2
2017-Oct-15 18:59N 37°54' W 122°25'510.8
2017-Oct-15 18:30N 37°50' W 122°22'3 4.5
2017-Oct-15 17:56N 37°49' W 122°19'0 0.0
2017-Oct-15 17:29N 37°49' W 122°19'0 0.0
2017-Oct-15 16:56N 37°49' W 122°19'0 0.0
2017-Oct-15 16:26N 37°49' W 122°19'0 0.0
2017-Oct-15 15:59N 37°49' W 122°19'0 0.0
2017-Oct-15 15:29N 37°49' W 122°19'0 0.0
2017-Oct-15 14:59N 37°49' W 122°19'1 1.0
2017-Oct-15 13:59N 37°49' W 122°20'2 3.7
2017-Oct-15 13:30N 37°48' W 122°22'1 2.0
2017-Oct-15 12:55N 37°48' W 122°21'0 0.0
2017-Oct-15 12:28N 37°48' W 122°21'0 0.0
2017-Oct-15 11:58N 37°48' W 122°21'0 0.0
2017-Oct-15 11:28N 37°48' W 122°21'0 0.0
2017-Oct-15 10:58N 37°48' W 122°21'0 0.0
2017-Oct-15 10:28N 37°48' W 122°21'0 0.0
2017-Oct-15 09:58N 37°48' W 122°21'0 0.0
2017-Oct-15 09:28N 37°48' W 122°21'0 0.0
2017-Oct-15 08:58N 37°48' W 122°21'0 0.0
2017-Oct-15 08:25N 37°48' W 122°21'0 0.0
2017-Oct-15 07:58N 37°48' W 122°21'0 0.0
2017-Oct-15 07:28N 37°48' W 122°21'0 0.0
2017-Oct-15 06:58N 37°48' W 122°21'1 2.4
2017-Oct-15 06:28N 37°48' W 122°19'0 1.1
2017-Oct-15 06:00N 37°48' W 122°20'1 1.6
2017-Oct-15 05:30N 37°48' W 122°21'0 0.1
2017-Oct-15 05:00N 37°48' W 122°21'0 0.1
2017-Oct-15 04:27N 37°48' W 122°21'4 8.7
2017-Oct-15 04:00N 37°51' W 122°24'3 5.8
2017-Oct-15 03:30N 37°54' W 122°23'1 1.4
2017-Oct-15 02:40N 37°55' W 122°22'0 1.5
2017-Oct-15 02:30N 37°55' W 122°22'2 3.2
2017-Oct-15 02:01N 37°54' W 122°24'2 3.3
2017-Oct-15 01:30N 37°53' W 122°25'2 4.3
2017-Oct-15 01:01N 37°51' W 122°24'4 8.1
2017-Oct-15 00:31N 37°49' W 122°20'1 2.0
2017-Oct-15 00:00N 37°49' W 122°19'0 0.0
2017-Oct-14 23:27N 37°49' W 122°19'0 0.0
2017-Oct-14 23:00N 37°49' W 122°19'0 0.0
2017-Oct-14 22:30N 37°49' W 122°19'0 0.0
2017-Oct-14 22:00N 37°49' W 122°19'0 0.0
2017-Oct-14 21:30N 37°49' W 122°19'0 0.0
2017-Oct-14 20:57N 37°49' W 122°19'0 0.0
2017-Oct-14 20:30N 37°49' W 122°19'4 7.3
2017-Oct-14 20:00N 37°49' W 122°23'4 8.1
2017-Oct-14 19:30N 37°49' W 122°28'2 4.8
2017-Oct-14 19:00N 37°49' W 122°31'510.1
2017-Oct-14 18:31N 37°51' W 122°25'5 9.4
2017-Oct-14 18:00N 37°55' W 122°27'7 9.2
2017-Oct-14 17:13N 38°02' W 122°23'3 9.1
2017-Oct-14 16:51N 38°03' W 122°19'3 7.2
2017-Oct-14 16:23N 38°04' W 122°15'5 2.3
2017-Oct-14 14:01N 38°02' W 122°08'0 0.0
2017-Oct-14 00:42N 38°02' W 122°08'2 5.0
2017-Oct-14 00:19N 38°03' W 122°10'2 7.5
2017-Oct-14 00:00N 38°04' W 122°13'4 8.1
2017-Oct-13 23:30N 38°03' W 122°18'4 8.5
2017-Oct-13 23:00N 38°01' W 122°23'510.1
2017-Oct-13 22:30N 37°57' W 122°27'5 9.5
2017-Oct-13 22:00N 37°53' W 122°25'4 7.5
2017-Oct-13 21:30N 37°49' W 122°26'3 5.9
2017-Oct-13 21:00N 37°48' W 122°30'0 0.6
2017-Oct-13 20:30N 37°48' W 122°30'2 3.7
2017-Oct-13 20:00N 37°49' W 122°28'5 9.7
2017-Oct-13 19:30N 37°48' W 122°22'3 4.9
2017-Oct-13 18:58N 37°49' W 122°19'0 0.0
2017-Oct-13 18:28N 37°49' W 122°19'0 0.0
2017-Oct-13 17:58N 37°49' W 122°19'0 0.0
2017-Oct-13 17:28N 37°49' W 122°19'0 0.0
2017-Oct-13 16:58N 37°49' W 122°19'0 0.0
2017-Oct-13 16:28N 37°49' W 122°19'0 0.0
2017-Oct-13 15:55N 37°49' W 122°19'0 0.0
2017-Oct-13 15:28N 37°49' W 122°19'0 0.0
2017-Oct-13 14:58N 37°49' W 122°19'0 0.0
2017-Oct-13 14:22N 37°49' W 122°19'0 0.0
2017-Oct-13 13:58N 37°49' W 122°19'1 2.0
2017-Oct-13 13:26N 37°49' W 122°20'0 0.2
2017-Oct-13 12:56N 37°49' W 122°20'2 4.3
2017-Oct-13 12:29N 37°48' W 122°22'2 4.1
2017-Oct-13 12:01N 37°48' W 122°20'1 2.9
2017-Oct-13 11:30N 37°48' W 122°18'0 0.4
2017-Oct-13 11:00N 37°47' W 122°18'1 1.2
2017-Oct-13 10:30N 37°48' W 122°19'0 0.1
2017-Oct-13 10:00N 37°48' W 122°19'0 0.0
2017-Oct-13 09:31N 37°48' W 122°19'0 0.0
2017-Oct-13 09:00N 37°48' W 122°19'0 0.0
2017-Oct-13 08:30N 37°48' W 122°19'0 0.0
2017-Oct-13 08:01N 37°48' W 122°19'0 0.0
2017-Oct-13 07:30N 37°48' W 122°19'0 0.0
2017-Oct-13 07:00N 37°48' W 122°19'0 0.0
2017-Oct-13 06:30N 37°48' W 122°19'0 0.0
2017-Oct-13 06:00N 37°48' W 122°19'0 0.0
2017-Oct-13 05:30N 37°48' W 122°19'0 0.0
2017-Oct-13 05:00N 37°48' W 122°19'0 0.0
2017-Oct-13 04:30N 37°48' W 122°19'0 0.0
2017-Oct-13 03:57N 37°48' W 122°19'0 0.5
2017-Oct-13 03:30N 37°48' W 122°19'1 1.9
2017-Oct-13 03:00N 37°48' W 122°18'1 1.5
2017-Oct-13 02:28N 37°48' W 122°19'0 0.4
2017-Oct-13 02:00N 37°48' W 122°19'2 4.4
2017-Oct-13 01:30N 37°48' W 122°22'3 5.0
2017-Oct-13 00:58N 37°49' W 122°19'0 0.0
2017-Oct-13 00:28N 37°49' W 122°19'0 0.0
2017-Oct-12 23:58N 37°49' W 122°19'1 2.7
2017-Oct-12 23:30N 37°49' W 122°20'1 2.1
2017-Oct-12 23:00N 37°48' W 122°19'1 1.5
2017-Oct-12 22:30N 37°48' W 122°20'2 3.4
2017-Oct-12 21:59N 37°49' W 122°19'0 0.0
2017-Oct-12 21:29N 37°49' W 122°19'0 0.0
2017-Oct-12 20:56N 37°49' W 122°19'0 0.0
2017-Oct-12 20:29N 37°49' W 122°19'0 0.0
2017-Oct-12 19:59N 37°49' W 122°19'0 0.0
2017-Oct-12 19:26N 37°49' W 122°19'0 0.0
2017-Oct-12 18:59N 37°49' W 122°19'0 0.0
2017-Oct-12 18:29N 37°49' W 122°19'0 0.0
2017-Oct-12 17:59N 37°49' W 122°19'0 0.0
2017-Oct-12 17:29N 37°49' W 122°19'0 0.0
2017-Oct-12 16:59N 37°49' W 122°19'0 0.0
2017-Oct-12 16:29N 37°49' W 122°19'0 0.0
2017-Oct-12 15:59N 37°49' W 122°19'0 0.0
2017-Oct-12 15:29N 37°49' W 122°19'0 0.0
2017-Oct-12 14:59N 37°49' W 122°19'0 0.0
2017-Oct-12 14:29N 37°49' W 122°19'0 0.0
2017-Oct-12 13:59N 37°49' W 122°19'0 0.0
2017-Oct-12 13:29N 37°49' W 122°19'0 0.0
2017-Oct-12 12:59N 37°49' W 122°19'0 0.0
2017-Oct-12 12:29N 37°49' W 122°19'0 0.0
2017-Oct-12 11:59N 37°49' W 122°19'1 1.7
2017-Oct-12 11:28N 37°49' W 122°20'0 0.3
2017-Oct-12 11:01N 37°49' W 122°20'1 1.7
2017-Oct-12 10:26N 37°49' W 122°19'0 0.0
2017-Oct-12 09:59N 37°49' W 122°19'0 0.0
2017-Oct-12 09:30N 37°49' W 122°19'0 0.0
2017-Oct-12 08:59N 37°49' W 122°19'0 0.0
2017-Oct-12 08:29N 37°49' W 122°19'0 0.0
2017-Oct-12 07:59N 37°49' W 122°19'0 0.0
2017-Oct-12 07:29N 37°49' W 122°19'0 0.0
2017-Oct-12 06:59N 37°49' W 122°19'0 0.0
2017-Oct-12 06:29N 37°49' W 122°19'0 0.0
2017-Oct-12 05:59N 37°49' W 122°19'0 0.0
2017-Oct-12 05:29N 37°49' W 122°19'0 0.0
2017-Oct-12 04:59N 37°49' W 122°19'0 0.0
2017-Oct-12 04:29N 37°49' W 122°19'1 2.0
2017-Oct-12 04:00N 37°49' W 122°20'1 2.6
2017-Oct-12 03:28N 37°48' W 122°19'2 3.9
2017-Oct-12 03:00N 37°48' W 122°21'0 0.2
2017-Oct-12 02:30N 37°48' W 122°21'2 3.1
2017-Oct-12 01:58N 37°48' W 122°19'0 0.1
2017-Oct-12 01:29N 37°48' W 122°19'0 0.0
2017-Oct-12 00:59N 37°48' W 122°19'0 0.0
2017-Oct-12 00:29N 37°48' W 122°19'0 0.0
2017-Oct-12 00:00N 37°48' W 122°19'1 2.4
2017-Oct-11 23:29N 37°49' W 122°20'0 0.9
2017-Oct-11 22:57N 37°49' W 122°20'1 2.7
2017-Oct-11 22:31N 37°48' W 122°22'3 4.8
2017-Oct-11 21:58N 37°49' W 122°19'0 0.0
2017-Oct-11 21:28N 37°49' W 122°19'0 0.0
2017-Oct-11 20:58N 37°49' W 122°19'0 0.0
2017-Oct-11 20:28N 37°49' W 122°19'0 0.0
2017-Oct-11 19:55N 37°49' W 122°19'0 0.0
2017-Oct-11 19:28N 37°49' W 122°19'0 0.0
2017-Oct-11 18:58N 37°49' W 122°19'0 0.0
2017-Oct-11 18:28N 37°49' W 122°19'0 0.0
2017-Oct-11 17:58N 37°49' W 122°19'0 0.0
2017-Oct-11 17:28N 37°49' W 122°19'0 0.0
2017-Oct-11 16:58N 37°49' W 122°19'13 0.7
2017-Oct-10 23:59N 38°02' W 122°22'7 8.6
2017-Oct-10 23:10N 38°04' W 122°14'2 0.1
2017-Oct-09 20:23N 38°03' W 122°11'5 9.9
2017-Oct-09 19:53N 38°03' W 122°17'4 8.4
2017-Oct-09 19:25N 38°02' W 122°22'710.3
2017-Oct-09 18:46N 37°56' W 122°27'310.7
2017-Oct-09 18:30N 37°54' W 122°26'5 9.5
2017-Oct-09 18:00N 37°49' W 122°25'5 9.9
2017-Oct-09 17:30N 37°48' W 122°31'1 2.4
2017-Oct-09 17:00N 37°49' W 122°29'5 9.2
2017-Oct-09 16:30N 37°49' W 122°23'4 7.1
2017-Oct-09 15:58N 37°49' W 122°19'0 0.0
2017-Oct-09 15:28N 37°49' W 122°19'0 0.0
2017-Oct-09 14:58N 37°49' W 122°19'0 0.0
2017-Oct-09 14:28N 37°49' W 122°19'0 0.0
2017-Oct-09 13:58N 37°49' W 122°19'0 0.0
2017-Oct-09 13:28N 37°49' W 122°19'0 0.0
2017-Oct-09 12:58N 37°49' W 122°19'0 0.0
2017-Oct-09 12:28N 37°49' W 122°19'0 0.0
2017-Oct-09 11:58N 37°49' W 122°19'0 0.0
2017-Oct-09 11:28N 37°49' W 122°19'0 0.0
2017-Oct-09 10:58N 37°49' W 122°19'0 0.0
2017-Oct-09 10:28N 37°49' W 122°19'0 0.0
2017-Oct-09 09:58N 37°49' W 122°19'0 0.0
2017-Oct-09 09:28N 37°49' W 122°19'0 0.0
2017-Oct-09 08:58N 37°49' W 122°19'0 0.0
2017-Oct-09 08:28N 37°49' W 122°19'0 0.0
2017-Oct-09 07:55N 37°49' W 122°19'0 0.0
2017-Oct-09 07:28N 37°49' W 122°19'0 0.0
2017-Oct-09 06:58N 37°49' W 122°19'0 0.0
2017-Oct-09 06:28N 37°49' W 122°19'0 0.0
2017-Oct-09 05:58N 37°49' W 122°19'0 0.0
2017-Oct-09 05:28N 37°49' W 122°19'0 0.0
2017-Oct-09 04:58N 37°49' W 122°19'1 1.1
2017-Oct-09 04:30N 37°49' W 122°19'4 7.8
2017-Oct-09 04:01N 37°51' W 122°23'5 9.1
2017-Oct-09 03:30N 37°55' W 122°25'0 0.6
2017-Oct-09 02:57N 37°55' W 122°25'0 0.5
2017-Oct-09 02:30N 37°55' W 122°25'3 6.8
2017-Oct-09 02:00N 37°52' W 122°24'5 9.3
2017-Oct-09 01:30N 37°49' W 122°19'1 1.1
2017-Oct-09 00:59N 37°49' W 122°19'0 0.0
2017-Oct-09 00:29N 37°49' W 122°19'0 0.0
2017-Oct-08 23:59N 37°49' W 122°19'1 2.3
2017-Oct-08 23:30N 37°49' W 122°20'4 7.6
2017-Oct-08 23:00N 37°49' W 122°25'2 3.2
2017-Oct-08 22:28N 37°49' W 122°27'0 0.0
2017-Oct-08 21:58N 37°49' W 122°27'1 2.1
2017-Oct-08 21:31N 37°49' W 122°28'1 2.5
2017-Oct-08 21:01N 37°49' W 122°26'1 1.9
2017-Oct-08 20:28N 37°49' W 122°25'0 0.0
2017-Oct-08 19:58N 37°49' W 122°25'1 2.0
2017-Oct-08 19:30N 37°48' W 122°24'2 5.0
2017-Oct-08 19:00N 37°48' W 122°21'2 4.0
2017-Oct-08 18:30N 37°49' W 122°19'0 0.0
2017-Oct-08 18:00N 37°49' W 122°19'0 0.0
2017-Oct-08 17:27N 37°49' W 122°19'0 0.0
2017-Oct-08 17:00N 37°49' W 122°19'0 0.0
2017-Oct-08 16:30N 37°49' W 122°19'0 0.0
2017-Oct-08 16:00N 37°49' W 122°19'0 0.0
2017-Oct-08 15:30N 37°49' W 122°19'0 0.0
2017-Oct-08 15:00N 37°49' W 122°19'0 0.0
2017-Oct-08 14:30N 37°49' W 122°19'0 0.0
2017-Oct-08 14:00N 37°49' W 122°19'0 0.0
2017-Oct-08 13:30N 37°49' W 122°19'0 0.0
2017-Oct-08 13:00N 37°49' W 122°19'0 0.0
2017-Oct-08 12:30N 37°49' W 122°19'0 0.0
2017-Oct-08 12:00N 37°49' W 122°19'0 0.0
2017-Oct-08 11:30N 37°49' W 122°19'0 0.0
2017-Oct-08 11:00N 37°49' W 122°19'0 0.0
2017-Oct-08 10:30N 37°49' W 122°19'0 0.0
2017-Oct-08 10:00N 37°49' W 122°19'0 0.0
2017-Oct-08 09:30N 37°49' W 122°19'0 0.0
2017-Oct-08 09:00N 37°49' W 122°19'0 0.0
2017-Oct-08 08:30N 37°49' W 122°19'0 0.0
2017-Oct-08 08:00N 37°49' W 122°19'0 0.0
2017-Oct-08 07:30N 37°49' W 122°19'0 0.0
2017-Oct-08 07:00N 37°49' W 122°19'0 0.0
2017-Oct-08 06:30N 37°49' W 122°19'2 2.9
2017-Oct-08 05:58N 37°48' W 122°20'0 0.2
2017-Oct-08 05:29N 37°48' W 122°19'2 3.5
2017-Oct-08 05:00N 37°48' W 122°17'2 3.2
2017-Oct-08 04:30N 37°48' W 122°19'2 3.2
2017-Oct-08 04:00N 37°48' W 122°21'2 4.5
2017-Oct-08 03:30N 37°49' W 122°19'0 0.0
2017-Oct-08 03:00N 37°49' W 122°19'0 0.0
2017-Oct-08 02:30N 37°49' W 122°19'0 0.0
2017-Oct-08 02:00N 37°49' W 122°19'0 0.0
2017-Oct-08 01:30N 37°49' W 122°19'  

Dump ship's entire track history